Buntingford, United Kingdom
Current Conditions -  °F | °C
As of 9:20 AM on Monday 29 Dec 2014 (Local Time) from EGSS Reporting Station
Scattered Clouds Scattered Clouds  
Wind Chill: 25°   Ceiling: Unl
Heat Index: 32°   Visibility: 6mi
Dew Point: 30°   Wind: 8mph
Humidity: 93%   Direction: 310°NW
Pressure: 30.68"   Gusts: NA
Location:  51.95°N, 0.02°W
Report Text: EGSS 290920Z 31007KT 9000 SCT034 00/M01 Q1039
Loading
Personal Weather Stations






























Interactive Weather Map New forecast layout! Learn more

10-Day Weather Forecast

Advertisements
Track Severe Weather on mobile